the time You need

Il Carpegna mi Basta

Carpegna, Pesaro Urbino   Italy

domenica 14 maggio 2017

Percorsi

LUNGO - 42.0 Km

 

CORTO - 22.0 Km

Servizi

ADSCOSTPunti KS Ranking

Chip

Circuiti

Italian 6 RaceRomagna Bike CupTour 3 Regioni SCOTT

Ente

FCI

Info

CLASSIFICA

LUNGO - 42.0 Km

Pos Atleta Sesso Cat PosC Team Tempo Media RTime
Sq. MENGHINI GIAMPIERO M M4 - TEAM CINGOLANI - SPECIALIZED 02:14:25.20 18,75 02:14:12.12
Sq. LAZZERI FABRIZIO M M6 - ASD CICLISTICA SANSEPOLCRO 02:49:32.30 14,86 02:48:26.26
DNF SCOLASTICO ANDREA M OPEN - DMT RACING TEAM 01:55:21.07 21,85 01:55:11.11
Sq. DI PARDO MASSIMO M M2 - ASDC VALLE DEL CONCA NORDIC WALKING 02:01:58.07 20,66 02:01:32.07
1 PIERPAOLI LORENZO M OPEN 1 TEAM CINGOLANI - SPECIALIZED 01:47:45.95 23,39 01:47:37.75
2 ROCCHETTI LEOPOLDO M OPEN 2 BIKE THERAPY ASD 01:48:47.46 23,17 01:48:39.36
3 LUCERTONI DAVID M M1 1 ASD BIKERS RACING TEAM 01:49:42.31 22,97 01:49:31.31
4 MIKHAILOUSKI SERGHEY M M3 1 TEAM MONDOBICI TECNOPLAST 01:52:47.81 22,34 01:52:36.21
5 BUCCI EMANUELE M M1 2 ASD FRECCE ROSSE RIMINI 01:55:22.07 21,84 01:55:15.15
6 URBINATI LUCA M M1 3 ASDC VALLE DEL CONCA NORDIC WALKING 01:55:35.06 21,80 01:55:25.25
7 PUGLISI DANIELE M ELMT 1 ASD BLACK ROAD 01:56:31.81 21,63 01:56:20.41
8 ROSSI FEDERICO M ELMT 2 TEAM CINGOLANI - SPECIALIZED 01:57:12.81 21,50 01:57:02.31
9 BRAVACCINI MATTEO M M1 4 CC RACING 01:57:25.82 21,46 01:57:16.12
10 ACCORDI LUCA M ELMT 3 TEAM PASSION FAENTINA 01:57:30.56 21,45 01:57:20.16
11 VERONI MIRCO M OPEN 3 BIKE THERAPY ASD 01:57:30.81 21,45 01:57:22.31
12 BARBERINI ALESSANDRO M OPEN 4 TEAM NOB SELLE ITALIA 01:57:32.31 21,44 01:57:32.31
13 NOCENTI SAURO M M4 1 TEAM SCOTT PASQUINI STELLA AZZURRA 01:57:32.92 21,44 01:57:23.52
14 GALAMINI MAURIZIO M M5 1 BARACCA LUGO MTB 01:57:33.53 21,44 01:57:22.03
15 BRUE´ NICOLA M ELMT 4 ASD RAVEN TEAM 01:58:11.56 21,32 01:58:01.56
16 ZAMA LORENZO M M1 5 TEAM PASSION FAENTINA 01:58:37.81 21,24 01:58:27.61
17 MARTELLA ALFREDO M M3 2 ASD MC2 BIKE 01:58:43.82 21,23 01:58:32.82
18 CODIGNONI LUCA M M2 1 ASD MC2 BIKE 01:59:07.21 21,16 01:58:55.01
19 BENDINI MAINARDI ANTONIO M M4 2 BD FAST 01:59:36.31 21,07 01:59:26.31
20 RENZI NICOLA M M4 3 PROBIKERS 02:00:30.82 20,91 02:00:18.62
21 VECCIOLINI FABIO M M2 2 ASD BICI ADVENTURE TEAM 02:00:38.06 20,89 02:00:23.23
22 COLLINI FRANCESCO M M1 6 GS BULGARNO´ BIKE 2008 02:00:45.20 20,87 02:00:24.20
23 ASTOLFI OMAR M M3 3 ASD H3O RACE TEAM 02:01:35.45 20,73 02:01:20.25
24 RAFFAELLI SAMUELE M M2 3 ASD H3O RACE TEAM 02:01:36.31 20,72 02:01:21.21
25 AGOSTINI ANDREA M M1 7 AVIS PRATOVECCHIO-ERREPI-LEE COUGAN 02:01:47.31 20,69 02:01:36.36
26 BUGIOLACCHIO LUCA M M3 4 ASD BIKERS RACING TEAM 02:01:53.31 20,68 02:01:39.11
27 TIBERI ENRICO M M2 4 TEAM MONDOBICI TECNOPLAST 02:02:02.07 20,65 02:01:46.46
28 TIBERI MATTEO M M1 8 TEAM MONDOBICI TECNOPLAST 02:02:02.46 20,65 02:01:47.47
29 GIACHE´ LUCA M ELMT 5 TEAM CINGOLANI - SPECIALIZED 02:02:06.70 20,64 02:01:54.30
30 GAMBELLI MASSIMO M M4 4 TEAM CINGOLANI - SPECIALIZED 02:02:28.21 20,58 02:02:16.16
31 ROSSI MARIO M M5 2 ASD H3O RACE TEAM 02:02:47.32 20,52 02:02:36.02
32 PELLEGRINO PARIDE M M4 5 TEAM TORPEDO BIKE 02:02:57.21 20,50 02:02:47.47
33 BUSSI SIMONE M M2 5 AVIS PRATOVECCHIO-ERREPI-LEE COUGAN 02:02:59.66 20,49 02:02:46.16
34 MARIOTTI FRANCESCO MARIO M M4 6 TEAM CINGOLANI - SPECIALIZED 02:03:23.70 20,42 02:02:56.00
35 CIARROCCHI DAVID M M2 6 ASD ARES BIKE TEAM 02:04:26.07 20,25 02:04:03.03
36 DILETTI ALESSANDRO M M3 5 AVIS BIKE CINGOLI 02:04:26.10 20,25 02:04:06.06
37 GUIDI MIRCO M M3 6 SAN MARINO RACE TEAM 02:04:34.06 20,23 02:04:10.10
38 FAGIOLI GILBERTO M M3 7 ESSERE SSD ARL 02:04:38.81 20,22 02:04:18.31
39 BOCCALI ANGELO M M3 8 TEAM MONDOBICI TECNOPLAST 02:04:59.06 20,16 02:04:44.06
40 CACCHIANI RICHARD M M3 9 ASD GS POPPI 02:05:13.20 20,13 02:04:48.48
41 CEROFOLINI FABIO M M2 7 ASD GS POPPI 02:05:13.57 20,13 02:04:48.48
42 BIGI MARCO M M3 10 CAVALLINO - SPECIALIZED 02:05:17.07 20,11 02:05:05.05
43 PIERANGELI LORENZO M ELMT 6 TEAM CINGOLANI - SPECIALIZED 02:05:36.32 20,06 02:05:22.02
44 ROVELLI ALESSANDRO M M2 8 PEPPERBIKE TEAM 02:05:39.31 20,06 02:04:50.50
45 SALLUSTI DAMIANO M M1 9 TEAM CINGOLANI - SPECIALIZED 02:05:41.31 20,05 02:05:17.17
46 GUGLIELMI MATTEO M M4 7 TEAM BIKE COCIF.COM ASD 02:05:59.14 20,00 02:05:46.46
47 PIERANTONI SIMONE M M3 11 TEAM MONDOBICI TECNOPLAST 02:06:04.32 19,99 02:05:49.49
48 TABONI MIRCO M M2 9 TEAM MONDOBICI TECNOPLAST 02:06:04.71 19,99 02:05:44.51
49 PINI GIANMARCO M JUN 1 PROBIKERS 02:06:52.32 19,86 02:06:43.12
50 BIZZARRI STEFANO M ELMT 7 TEAM CINGOLANI - SPECIALIZED 02:06:52.87 19,86 02:06:29.37
51 GALLI MARIANO M M3 12 TEAM NOB JOLLY WEAR 02:06:59.31 19,85 02:06:39.11
52 FONTANELLI MATTEO M ELMT 8 TEAM PASSION FAENTINA 02:07:02.07 19,84 02:06:50.50
53 MURATORI GIAMPAOLO M M5 3 CICLISTICA MERCATESE 02:07:15.31 19,80 02:07:07.07
54 MONTI ANDREA M M4 8 ASD TOSCO-ROMAGNOLA 02:08:14.06 19,65 02:08:00.06
55 CALISE MARCO M M7 1 ASCD VALLE DEL CONCA 02:08:21.57 19,63 02:08:13.13
56 SILVESTRI GIANCARLO M M5 4 TEAM BIKE LUNANO 02:08:43.39 19,58 02:08:19.19
57 FIORINI FABIO M M5 5 KTM FORTI E LIBERI 02:09:08.32 19,51 02:08:56.32
58 RAGGI FABIO M M2 10 GOOD BIKE AS RONCOFREDDESE 02:09:30.32 19,46 02:08:49.12
59 FRESCHI ALESSANDRO M ELMT 9 GRUPPO TNT 02:09:30.33 19,46 02:09:03.13
60 TONVERONACHI FABIO M ELMT 10 ASD GS POPPI 02:09:33.31 19,45 02:09:08.08
61 GIULIANELLI MORENO M M6 1 ASD FRECCE ROSSE RIMINI 02:09:56.31 19,39 02:09:48.11
62 RIPA STEFANO M M2 11 ASDC VALLE DEL CONCA NORDIC WALKING 02:10:14.31 19,35 02:09:48.48
63 FUSARI LEONARDO ALBERTO M M2 12 360 BIKE TEAM 02:10:14.81 19,35 02:09:37.81
64 PASQUARELLA ANDREA M M2 13 ASD TEAM CO.BO PAVONI 02:10:15.56 19,35 02:10:03.06
65 FABBRI CHRISTIAN M M3 13 TEAM PASSION FAENTINA 02:11:03.81 19,23 01:57:03.81
66 FAGIOLI UGO M M1 10 TREVI GROUP 02:11:20.31 19,19 02:10:58.31
67 BARTOLUCCI PATRIZIO M M5 6 ASD BLACK RIDERS 02:11:24.31 19,18 02:11:02.02
68 LISPI SIMONE M M2 14 ASD MC2 BIKE 02:11:35.82 19,15 02:11:11.42
69 CURCIO MARCO M M3 14 CC RACING 02:12:10.56 19,07 01:58:10.56
70 BIONDI MASSIMO M M5 7 TEAM MONDOBICI TECNOPLAST 02:12:13.31 19,06 02:11:54.54
71 BEST TOM RICHARD M M6 2 ASD ONLYOFF DUE RUOTE 02:12:17.35 19,05 02:11:59.59
72 BALDUCCI LUIGI M M2 15 ASD BIKERS RACING TEAM 02:12:18.36 19,05 02:11:50.50
73 EUSEBI LORENZO M ELMT 11 PROBIKERS 02:12:23.56 19,04 02:12:10.36
74 CAPPELLI MICHELE M ELMT 12 PROBIKERS 02:12:26.07 19,03 01:58:26.07
75 BELLINI IVAN M M4 9 ASD BIKE INNOVATION SQUADRA CORSE 02:12:41.31 18,99 02:12:10.31
76 BENVENUTI MATTEO M M3 15 FREEDOM BIKE 02:12:41.81 18,99 02:12:19.61
77 RAGGINI ROBERTO M M5 8 SCORPION BIKE MTB 02:12:53.82 18,96 02:12:37.82
78 CAVIOLI DANIELE M M2 16 ASD LE SALINE NATURA E SPORT 02:13:00.06 18,95 01:59:00.06
79 IAMMARINO GIANLUCA M M3 16 TEAM ESSERE E MTBICIO 02:13:03.38 18,94 02:12:44.18
80 BONFINI ROBERTO M M4 10 SAN MARINO RACE TEAM 02:13:07.64 18,93 02:12:53.53
81 MAMBELLI MARINO M M7 2 ASD TEAM COMACO 02:13:10.56 18,92 02:12:59.36
82 GHETTI WILMER M M4 11 GS TORPADO SURFING SHOP SPORT PROMOTION 02:13:11.90 18,92 02:12:56.80
83 ALESSANDRINI GUGLIELMO M M6 3 TEAM MONDOBICI TECNOPLAST 02:13:28.93 18,88 02:13:19.23
84 TAGLIANI MATTEO M M2 17 ASD BICICULT 02:13:38.81 18,86 02:13:22.61
85 FRANCIONI GIULIO M ELMT 13 ASD PRDSPORT 02:13:44.07 18,84 02:13:29.29
86 CAVALLI ALVER M M3 17 ASD LE SALINE NATURA E SPORT 02:13:48.20 18,83 02:13:31.31
87 RINALDI ANDREA M ELMT 14 GRUPPO TNT 02:13:48.31 18,83 02:13:21.31
88 STRABBIOLI LUCA M M4 12 TEAM CINGOLANI - SPECIALIZED 02:13:49.81 18,83 02:13:07.41
89 PETRUCCIOLI ARNALDO M M6 4 ASD GS POPPI 02:13:52.32 18,82 02:13:41.32
90 LEARDINI GABRIELE M ELMT 15 ASD BLACK ROAD 02:14:01.59 18,80 02:13:29.19
91 CORINALDESI SIMONE M M3 18 TEAM CINGOLANI - SPECIALIZED 02:14:09.09 18,78 02:13:30.30
92 FREGNANI SAURO M M3 19 BD FAST 02:14:20.06 18,76 02:14:04.04
93 PRETOLANI TIBERIO M M5 9 ASD IMOLA BIKE 02:14:20.81 18,76 02:13:56.41
94 FANELLI SAMUELE M M2 18 TEAM MONDOBICI TECNOPLAST 02:14:51.32 18,69 02:14:30.30
95 GESSI ANDREA M M3 20 ASDC VALLE DEL CONCA NORDIC WALKING 02:14:52.07 18,69 02:14:26.26
96 PIAGNERELLI MATTEO M M2 19 TEAM CINGOLANI - SPECIALIZED 02:15:19.80 18,62 02:14:52.30
97 STEFANELLI DANIELA F MW2 1 TEAM CINGOLANI - SPECIALIZED 02:15:55.81 18,54 02:15:46.81
98 QUADRINI PIERLUIGI M M4 13 ASD BIKERS RACING TEAM 02:16:21.07 18,48 02:15:27.07
99 GRILLI LUCA M M2 20 ASDC VALLE DEL CONCA NORDIC WALKING 02:16:21.56 18,48 02:15:35.56
100 SALVATORI STEFANO M M6 5 KTM FORTI E LIBERI 02:16:30.57 18,46 02:02:30.57
101 VAGNOLI MAURO M M5 10 AVIS PRATOVECCHIO-ERREPI-LEE COUGAN 02:16:31.56 18,46 02:16:19.19
102 ZANETTI GIANNI M M2 21 TEAM ZANETTI ASD 02:16:59.07 18,40 02:16:37.37
103 UNCINI DIEGO M M1 11 AVIS BIKE CINGOLI 02:17:00.07 18,39 02:16:30.30
104 BACCHI GIANLUCA M M2 22 ASD BIKERS RACING TEAM 02:17:00.32 18,39 02:16:41.32
105 GIACOMONI MASSIMO M M4 14 ASD BLACK RIDERS 02:17:10.31 18,37 02:16:47.11
106 GALLI LANFRANCO M M5 11 ASC CICLI CLEMENTI 02:17:23.06 18,34 02:17:07.07
107 CENTANNI MICHELE M M2 23 ASD BIKE CLUB CAFFE´ 02:17:28.32 18,33 02:17:04.04
108 GIOVAGNOLI MARCO M M1 12 ASD VALMARACING TEAM 02:17:39.07 18,31 02:17:27.27
109 CIOLLI FILIPPO M JUN 2 AVIS PRATOVECCHIO-ERREPI-LEE COUGAN 02:17:43.56 18,30 02:17:34.36
110 MOSCA MARCO M M2 24 TEAM CINGOLANI - SPECIALIZED 02:17:45.81 18,29 02:17:32.21
111 FERRIOLI DEVIS M M3 21 TEAM PASSION FAENTINA 02:17:46.10 18,29 02:17:32.32
112 CANTUCCI ALESSIO M ELMT 16 TEAM MONDOBICI TECNOPLAST 02:17:52.81 18,28 02:17:19.19
113 ALTINI ANDREA M M2 25 KTM FORTI E LIBERI 02:17:55.06 18,27 02:17:24.24
114 CATALANI MATTEO M M3 22 ASD CRAZY BIKE CAMERANO 02:17:55.32 18,27 02:17:25.32
115 TERENZI ANDREA M OPEN 5 TEAM NOB SELLE ITALIA 02:18:02.81 18,26 02:17:53.53
116 COZZOLINO CLAUDIO M M3 23 ASD TEAM COMACO 02:18:08.96 18,24 02:17:54.26
117 STROCCHI MATTIA M M2 26 TEAM NOB JOLLY WEAR 02:18:17.07 18,22 02:04:17.07
118 MOSCHETTI MARIO M M6 6 SC PARLESCA RACING BIKES PG 02:18:21.81 18,21 02:18:08.81
119 PRUNI PAOLO M M5 12 KTM FORTI E LIBERI 02:18:21.95 18,21 02:18:02.05
120 BUGLI SAMUELE M M2 27 ASS. TEAM PENNAROSSA 02:18:37.32 18,18 02:17:56.12
121 GUERRINI EMANUELE M M2 28 TEAM ZANETTI ASD 02:18:47.32 18,16 02:18:25.25
122 PAZZAGLINI TOMMASO M ELMT 17 TEAM CINGOLANI - SPECIALIZED 02:18:49.70 18,15 02:17:48.70
123 MARILUNGO ANDREA M M4 15 ASD CRAZY BIKE CAMERANO 02:18:49.81 18,15 02:18:19.81
124 MONTANARI MAURO M M2 29 TEAM PASSION FAENTINA 02:19:29.31 18,07 02:19:14.11
125 ELIA EMANUELE M M1 13 ASD CICLO DUCALE URBINO 02:19:35.82 18,05 02:18:49.32
126 PACCAZZOCCO LUCA M M1 14 ASD BIKERS RACING TEAM 02:19:38.44 18,05 02:18:42.44
127 MAGALOTTI DAVIDE M M2 30 SPACCO ASD 02:19:38.44 18,05 02:19:17.17
128 BORDONI PIETRO M M5 13 ASD MEDINOX 02:19:38.47 18,05 02:19:20.37
129 MARTINI GIANCARLO M M3 24 BARACCA LUGO MTB 02:19:39.56 18,05 02:19:23.23
130 MORONCI CLAUDIO M M1 15 BIKE THERAPY ASD 02:20:03.82 17,99 02:06:03.82
131 GASTALDI ELISA F MW1 1 TEAM PASSION FAENTINA 02:20:05.57 17,99 02:19:54.37
132 ORAZI ANDREA M M6 7 TEAM CINGOLANI - SPECIALIZED 02:20:18.56 17,96 02:19:50.50
133 PIERAZZUOLI SIMONE M JUN 3 AVIS PRATOVECCHIO-ERREPI-LEE COUGAN 02:20:22.55 17,95 02:20:13.13
134 BERTI MICHELE M M4 16 DONKEY BIKE CLUB SINALUNGA 02:20:23.82 17,95 02:20:10.12
135 SANTI DANILO M M4 17 TEAM BIKE 2000 ASD 02:20:25.07 17,95 02:19:33.07
136 BUFARINI NAZZARENO M M5 14 TEAM CINGOLANI - SPECIALIZED 02:20:39.56 17,92 02:19:59.59
137 CAVALLINI RANIERO M M4 18 ASD TEAM CO.BO PAVONI 02:20:41.10 17,91 02:20:28.28
138 CONTI LUCA M M4 19 TEAM SCOTT PASQUINI STELLA AZZURRA 02:20:41.94 17,91 02:20:20.74
139 MUCCINI FEDERICO M M4 20 PEPPERBIKE TEAM 02:20:57.81 17,88 02:20:26.31
140 GIOMBETTI GIANCARLO M M4 21 TEAM CINGOLANI - SPECIALIZED 02:21:05.06 17,86 02:20:38.38
141 GREGORI DANIELE M M4 22 COMERO BIKE 02:21:06.06 17,86 02:20:36.36
142 FABBRI DAVIDE M M3 25 ASD H3O RACE TEAM 02:21:08.81 17,86 02:20:51.31
143 GOBBI STEFANO M M1 16 ASDC VALLE DEL CONCA NORDIC WALKING 02:21:09.14 17,85 02:20:38.38
144 GENTILUOMO DOMENICO M M5 15 CICLI COPPARO 02:21:13.36 17,84 02:20:38.06
145 VALLICELLI MIRKO M M2 31 TEAM PASSION FAENTINA 02:21:25.70 17,82 02:20:53.70
146 ACCIAI ANDREA M ELMT 18 AVIS PRATOVECCHIO-ERREPI-LEE COUGAN 02:21:29.81 17,81 02:21:04.31
147 MAURO EMANUELE M ELMT 19 TEAM PASSION FAENTINA 02:21:30.06 17,81 02:21:17.17
148 PLENZICH REMILIANO M M3 26 TEAM MONDOBICI TECNOPLAST 02:21:30.45 17,81 02:21:11.05
149 FABBRI CLAUDIO M M2 32 TEAM PASSION FAENTINA 02:21:31.82 17,81 02:21:15.52
150 CAIBUGATTI GIANNI M M4 23 AVIS PRATOVECCHIO-ERREPI-LEE COUGAN 02:21:47.06 17,77 02:21:29.29
151 VALDIFIORI MIRCO M M3 27 180 BPM 02:21:50.55 17,77 02:21:13.05
152 BALDUCCI GIORGIO M M5 16 TEAM BIKE LUNANO 02:21:53.56 17,76 02:07:53.56
153 MAGALOTTI YURI M M4 24 GS BULGARNO´ BIKE 2008 02:22:13.06 17,72 02:08:13.06
154 PILESI ENRICO M ELMT 20 ASD SUPERBIKE TEAM 02:22:22.91 17,70 02:21:20.71
155 GIOVAGNOLI LUCA M M2 33 GC CARPEGNA AVIS ALTO MONTEFELTRO 02:22:24.94 17,70 02:22:11.44
156 DAL PRATO MIRCO M M1 17 TEAM PASSION FAENTINA 02:22:31.64 17,68 02:22:16.04
157 MAGNANI PAOLO M M5 17 ASCD VALLE DEL CONCA 02:22:36.06 17,67 02:21:46.06
158 MORLINO CESARE M M3 28 DONKEY BIKE CLUB SINALUNGA 02:22:36.50 17,67 02:22:23.10
159 LAMI FLAVIO M M6 8 SCORPION BIKE MTB 02:22:37.31 17,67 02:22:21.21
160 ZACCARELLI GIUSEPPE M M4 25 TEAM PASSION FAENTINA 02:22:53.13 17,64 02:22:21.13
161 BROCCOLI SANDRO M M5 18 TEAM MONDOBICI TECNOPLAST 02:23:07.06 17,61 02:22:46.46
162 FIORI JENNIFER F DE 1 BIKE THERAPY ASD 02:23:08.20 17,61 02:23:00.00
163 ROSELLI MICHELE M M4 26 A.S.D. I MUFLONI RACING TEAM 02:23:48.05 17,52 02:23:03.03
164 BINDI ALDO M M4 27 CICLO CLUB QUOTA MILLE 02:24:00.31 17,50 02:23:29.11
165 GAVANELLI LORENZO M M2 34 POL. YOUNG LINE 02:24:08.57 17,48 02:23:48.37
166 CAPPELLETTI MAURO M M1 18 AVIS BIKE CINGOLI 02:24:08.58 17,48 02:24:08.58
167 BIANCHINI GIORGIO M M6 9 BAMBANA BIKE 02:24:24.39 17,45 02:24:04.04
168 CHIARINI LUCA M M2 35 TEAM PASSION FAENTINA 02:24:26.43 17,45 02:10:26.43
169 BELLUCCI GIOVANNI M ELMT 21 AVIS PRATOVECCHIO-ERREPI-LEE COUGAN 02:24:27.57 17,45 02:24:00.37
170 DOS SANTOS FABIO M M1 19 ASD TEAM COMACO 02:24:28.32 17,44 02:23:51.51
171 SUCCI ALESSANDRO M ELMT 22 ROWA TEAM 02:24:29.81 17,44 02:23:39.21
172 SPITONI ANDREA M M2 36 ASD BICI ADVENTURE TEAM 02:24:33.06 17,43 02:24:00.00
173 BECCI MORENO M M7 3 AVIS PRATOVECCHIO-ERREPI-LEE COUGAN 02:24:35.31 17,43 02:24:18.31
174 VENTURI OTELLO M M5 19 TEAM MONDOBICI TECNOPLAST 02:24:36.05 17,43 02:24:14.14
175 SANTELLI GIUSEPPE M M4 28 TEAM CINGOLANI - SPECIALIZED 02:24:37.05 17,43 02:24:23.23
176 GRANDI SAMUELE M M1 20 ASD IMOLA BIKE 02:24:53.59 17,39 02:23:55.59
177 PARA MASSIMO M M5 20 COMERO BIKE 02:24:54.81 17,39 02:24:25.81
178 FABBRI MASSIMO M M4 29 TEAM BIKE COCIF.COM ASD 02:24:57.64 17,39 02:24:35.64
179 BUCALA´ MANUELE M M1 21 AVIS BIKE CINGOLI 02:25:02.31 17,38 02:24:35.35
180 MENCATTINI STEFANO M M2 37 AVIS PRATOVECCHIO-ERREPI-LEE COUGAN 02:25:05.15 17,37 02:24:38.38
181 PETRUCCIOLI MONICA F MW1 2 ASD GS POPPI 02:25:05.30 17,37 02:11:05.30
182 PEDROSI CRISTIAN M M3 29 ASD BLACK ROAD 02:25:11.44 17,36 02:24:39.39
183 PROTO GIANCARLO M M5 21 TEAM CINGOLANI - SPECIALIZED 02:25:16.82 17,35 02:24:42.82
184 MARIUCCI LUCA M M4 30 ASD CUCCO IN BIKE 02:25:40.81 17,30 02:24:47.61
185 BRUSCIOTTI MARCO M M5 22 VILLA ROSA BIKE 02:25:46.11 17,29 02:24:44.11
186 PRATELLI DAVIDE M M3 30 CICLO TEAM 2001 GABICCE MARE 02:26:01.45 17,26 02:25:35.25
187 CASTELLARI VALERIO M M5 23 ASD LR BIKE TEAM 02:26:02.31 17,26 02:25:47.47
188 POLI MARCELLO M M2 38 TEAM FERRARA BIKE 02:26:06.82 17,25 02:25:24.12
189 FABBRI FABIO M M6 10 180 BPM 02:26:09.03 17,24 02:25:50.50
190 CASTELLUCCI STEFANO M M4 31 180 BPM 02:26:09.23 17,24 02:25:52.03
191 SILVANI ANDREA M M1 22 COMERO BIKE 02:26:10.65 17,24 02:12:10.65
192 RENZI MICHAEL M JUN 4 ASCD VALLE DEL CONCA 02:26:11.31 17,24 02:12:11.31
193 CASAGRANDE FRANCESCO M M2 39 TEAM MONDOBICI TECNOPLAST 02:26:11.45 17,24 02:25:49.49
194 DI MATTEO CRISTIAN M M3 31 CICLI NERI TEAM 02:26:15.57 17,23 02:25:55.55
195 DAL BORGO GIANCARLO M M2 40 AVIS FAENZA 02:26:22.56 17,22 02:25:15.36
196 TRUCCHIA GIACOMO M M1 23 ASD GIULIODORI RENZO BIKE CLUB CAFE´ 02:26:31.81 17,20 02:25:51.61
197 AMADASI ENRICO M M7 4 BAMBANA BIKE 02:26:34.30 17,19 02:26:14.10
198 GIOSUE´ SAMUELE M M3 32 ASD STELLA BIKE 02:26:49.56 17,16 02:26:27.56
199 DALL´OSSO CARLO M M5 24 POL. YOUNG LINE 02:26:59.31 17,14 02:26:11.01
200 NICOLINI GIORGIO M M1 24 ASD VALMARACING TEAM 02:27:02.06 17,14 02:26:20.20
201 RENZONI FRANCESCO M M3 33 DONKEY BIKE CLUB SINALUNGA 02:27:06.56 17,13 02:26:47.06
202 ROCCHETTI PAOLO M M4 32 ASD BRIGANTI FOSSOMBRONE 02:27:17.56 17,11 02:26:32.06
203 MAGRINI STEFANO M M6 11 TEAM PASSION FAENTINA 02:27:17.81 17,11 02:26:57.01
204 CODICE´ NICOLA M ELMT 23 GROUPE MONTEVITO CICLISMO 02:27:22.24 17,10 02:26:40.24
205 ARLOTTI MATTEO M ELMT 24 ROWA TEAM 02:27:52.05 17,04 02:26:58.58
206 SPADONI GABRIELE M M3 34 ASD ENERGIA BARBARA 02:27:58.06 17,03 02:27:20.20
207 FABBRI MAURO M M5 25 TEAM BIKE COCIF.COM ASD 02:28:00.80 17,03 02:27:40.10
208 SASDELLI MICHELE M M4 33 BAMBANA BIKE 02:28:13.82 17,00 02:27:44.32
209 PODESCHI ROBERTO M M4 34 SAN MARINO RACE TEAM 02:28:18.56 16,99 02:14:18.56
210 ANTINORI MARCO M M3 35 SAN MARINO RACE TEAM 02:28:28.81 16,97 02:28:14.11
211 GALLI MASSIMO M M4 35 VELO CLUB CATTOLICA 02:28:31.19 16,97 02:27:43.43
212 MASTINI MICHAEL M ELMT 25 CC RACING 02:28:31.44 16,97 02:28:02.24
213 MANZONI RICCARDO M ELMT 26 ASD SHARK RACING TEAM 02:28:33.81 16,96 02:27:37.81
214 MORRI MIRCO M M4 36 VERIFICA SQUADRA 02:28:55.56 16,92 02:28:37.56
215 CIOLLI MARCO M M5 26 AVIS PRATOVECCHIO-ERREPI-LEE COUGAN 02:28:57.15 16,92 02:28:19.19
216 CASTALDI PAOLO M M4 37 TEAM BIKE COCIF.COM ASD 02:29:04.56 16,91 02:28:43.43
217 SERVIDEI FABIO M M4 38 ASD SHARK RACING TEAM 02:29:13.31 16,89 02:28:17.17
218 CIAVARELLI PAOLO M M6 12 SC CENTRO BICI TEAM TERNI 02:29:26.31 16,86 02:28:54.54
219 SALVATORI MARTA F MW1 3 ASD BIKERS RACING TEAM 02:29:33.56 16,85 02:29:20.20
220 CECCARINI MATTEO M M3 36 CICLI MATTEONI - BIANCHI 02:29:35.81 16,85 02:28:48.31
221 BABINI GIOVANNI M M6 13 TEAM PASSION FAENTINA 02:29:37.20 16,84 02:29:19.20
222 CORVATTA MATTEO M M4 39 CICLO CLUB RECANATI 02:29:39.94 16,84 02:29:08.24
223 CORZANI ALESSANDRO M M4 40 COMERO BIKE 02:29:51.81 16,82 02:29:20.31
224 CAMPIDELLI SAURO M M5 27 CICLI MATTEONI - BIANCHI 02:30:03.45 16,79 02:16:03.45
225 MARONI MICHELE M M3 37 GOOD BIKE AS RONCOFREDDESE 02:30:12.56 16,78 02:29:32.32
226 GATTA ALESSANDRO M M1 25 GRUPPO TNT 02:30:29.05 16,75 02:29:49.05
227 GREGORI ANTONIO M M6 14 COMERO BIKE 02:30:38.94 16,73 02:30:05.84
228 MINIELLO LEO M M2 41 TEAM BIKE COCIF.COM ASD 02:30:39.07 16,73 02:30:12.12
229 MACCAGLI GIULIANO M M6 15 SAN MARINO RACE TEAM 02:30:45.56 16,72 02:29:51.06
230 MIGANI DENIS M M4 41 ASDC VALLE DEL CONCA NORDIC WALKING 02:30:50.81 16,71 02:30:19.71
231 CIRIACI MATTEO M ELMT 27 AVIS BIKE CINGOLI 02:30:54.56 16,70 02:30:11.06
232 NISI ANDREA M M1 26 ASD ARES BIKE TEAM 02:31:01.06 16,69 02:30:38.38
233 GUERRA MICHELE M M4 42 BARACCA LUGO MTB 02:31:01.81 16,69 02:30:22.11
234 BUDA GIANNI M M5 28 ASD MEDINOX 02:31:04.31 16,68 02:17:04.31
235 BRUNELLI ENRICO M M3 38 GRUPPO TNT 02:31:05.20 16,68 02:30:49.49
236 PELLEGRINI FABIO M M1 27 GOOD BIKE AS RONCOFREDDESE 02:31:11.81 16,67 02:30:29.11
237 CAPANNA STEFANO M M2 42 UISP RIMINI 02:31:11.82 16,67 02:30:53.42
238 CECCHI FRANCESCO M M2 43 SCORPION BIKE MTB 02:31:35.06 16,62 02:30:43.43
239 COSMI DIEGO M M1 28 TEAM MONDOBICI TECNOPLAST 02:31:54.20 16,59 02:17:54.20
240 CHIARADIA TULLIO M M3 39 180 BPM 02:31:54.31 16,59 02:31:16.16
241 CHIANURA CARLO M M2 44 GC MATELICA 02:32:08.56 16,56 02:31:35.06
242 MASSANELLI MATTEO M M1 29 ASD VALMARACING TEAM 02:32:45.82 16,50 02:32:02.32
243 CORSETTI FRANCESCO M M2 45 AVIS PRATOVECCHIO-ERREPI-LEE COUGAN 02:32:47.31 16,49 02:32:23.23
244 GAMBELLA DAVID M M4 43 ASD BIKERS RACING TEAM 02:32:53.56 16,48 02:32:24.24
245 BATTISTINI PIERO M M6 16 BAD SKULL ASD 02:33:02.06 16,47 02:32:41.41
246 TIBERI ENRICO M ELMT 28 ASD BIKE CLUB CAFFE´ 02:33:12.81 16,45 02:32:47.31
247 NERI FABIO M M5 29 ASD TOSCO-ROMAGNOLA 02:33:12.88 16,45 02:32:56.18
248 DE SIMONE ALESSANDRO M M2 46 GOOD BIKE AS RONCOFREDDESE 02:33:36.81 16,41 02:19:36.81
249 MAZZINI MARCO M M4 44 BAMBANA BIKE 02:33:36.88 16,41 02:33:06.18
250 EMILIANI GIAN GIACOMO M M5 30 FREEDOM BIKE 02:33:45.57 16,39 02:33:00.07
251 SCONOCCHINI ANDREA M M1 30 TEAM CINGOLANI - SPECIALIZED 02:33:51.62 16,38 02:32:58.12
252 BERARDI GIORGIO M M3 40 TEAM CINGOLANI - SPECIALIZED 02:33:51.81 16,38 02:33:23.81
253 TORRONI ANDREA M M1 31 GOOD BIKE AS RONCOFREDDESE 02:33:59.31 16,37 02:33:18.11
254 GIULIANELLI MARIO M M7 5 TEAM MONDOBICI TECNOPLAST 02:34:02.55 16,36 02:33:36.36
255 BURZACCA ANDREA M M6 17 GS TORPADO SURFING SHOP SPORT PROMOTION 02:34:17.56 16,33 02:33:29.36
256 BODELLINI ANDREA M M1 32 ASD BLACK ROAD 02:34:26.56 16,32 02:33:38.06
257 CAPPELLETTI FABIO M M2 47 ASD D´ASCENZO BIKE 02:34:28.31 16,31 02:33:24.24
258 ALESSANDRINI ENRICO M M2 48 ASD D´ASCENZO BIKE 02:34:28.34 16,31 02:33:23.14
259 CECCARONI MATTEO M M3 41 CICLI MATTEONI - BIANCHI 02:34:38.31 16,30 02:20:38.31
260 EUSEBI MAURO M M6 18 ASD TEAM BIKE VALCONCA 02:34:38.31 16,30 02:34:14.14
261 MONDUZZI MORENO M M5 31 ASD SACMI 02:34:49.81 16,28 02:34:18.61
262 SELVA FEDERICO M M2 49 SAN MARINO MTB TEAM 02:34:51.55 16,27 02:34:28.28
263 PAGANELLI OSCAR M ELMT 29 ASD POLISPORTIVA BIKEFAN 02:34:54.07 16,27 02:33:55.55
264 BARTOLINI MARCO M M3 42 ASD BIKE CLUB CAFFE´ 02:35:06.06 16,25 02:34:40.06
265 RIGHETTI PIETRO M M7 6 BAMBANA BIKE 02:35:08.56 16,24 02:34:40.40
266 FIECCONI MARCO M M2 50 ASD MY PLANET CORSE 02:35:11.05 16,24 02:34:15.15
267 SENSINI MONIA F MW1 4 ASD MEDINOX 02:35:12.05 16,24 02:21:12.05
268 GAMBERINI MARCO M M1 33 ASD BIKE INNOVATION SQUADRA CORSE 02:35:21.05 16,22 02:21:21.05
269 CESARINI FRANCESCO M M4 45 ASD VALMARACING TEAM 02:35:22.05 16,22 02:34:56.56
270 SCHIETROMA ALESSIO M M1 34 ACD ITALIA NUOVA 02:35:25.92 16,21 02:34:34.42
271 SIROTTI MATTEO M M4 46 VENTURI ADVENTURE TEAM 02:35:48.20 16,17 02:35:04.00
272 AGNOLETTI MARIO M M3 43 UISP RAVENNA 02:36:14.06 16,13 02:35:29.29
273 CALVIGIONI ROBERTO M M4 47 VIRGINIA BIKE MACERATA 02:36:15.31 16,13 02:22:15.31
274 DEL BIANCO CARLO ALBERTO M M3 44 AVIS BIKE CINGOLI 02:36:16.06 16,13 02:35:34.34
275 PELLEGRINO PIERPAOLO M M2 51 REPARTO CORSE 02:37:12.81 16,03 02:36:21.71
276 BALDONI LUCIANO M M4 48 ASD BIKERS RACING TEAM 02:37:13.31 16,03 02:36:43.01
277 MOLARI MATTIA M M2 52 SCORPION BIKE MTB 02:37:15.31 16,03 02:36:26.26
278 VANNINI MORENO M M3 45 TEAM NOB JOLLY WEAR 02:37:15.95 16,03 02:36:54.85
279 ABBRUCIATI LUCA M M5 32 TEAM CINGOLANI - SPECIALIZED 02:37:23.31 16,01 02:36:45.45
280 FALCINELLI RUDY M M1 35 TEAM OUTSIDERS 02:37:38.94 15,99 02:36:43.74
281 ORIANI MASSIMO M M5 33 ASD CIRCOLO ARCI MARZENO 02:37:39.19 15,98 02:23:39.19
282 MAZZOLI LEONARDO M M3 46 COMERO BIKE 02:37:40.07 15,98 02:37:10.10
283 GORRIERI RICCARDO M M5 34 ASD VALMARACING TEAM 02:37:44.23 15,98 02:37:21.21
284 MEDRI FRANCESCO M M5 35 BARACCA LUGO MTB 02:38:09.32 15,93 02:37:52.12
285 MONTEBELLI CRISTIAN M M2 53 CICLI MATTEONI - BIANCHI 02:38:11.41 15,93 02:37:20.20
286 FABIANI FABIO M M4 49 SPACCO ASD 02:38:14.18 15,93 02:37:46.46
287 CIAMBA GIANLUCA M M4 50 BIKE FARM RACE TEAM 02:38:18.19 15,92 02:37:26.26
288 PAZZINI GERARDO M M6 19 ASD POLISPORTIVA COSMOS 02:38:27.80 15,90 02:37:40.30
289 STAVOLA LUCA M M2 54 TEAM NOB JOLLY WEAR 02:38:37.97 15,89 02:38:14.77
290 FORTI LEONARDO M M4 51 FREE BIKE CESENA 02:39:25.05 15,81 02:38:24.24
291 COLOZZO VINCENZO M M3 47 INDIVIDUALE 02:39:27.05 15,80 02:38:36.36
292 LAZZERI ANDREA M ELMT 30 BIKELAND TEAM BIKE 2003 02:39:27.32 15,80 02:38:25.25
293 BARTOLINI VALERIA F MW2 2 TEAM TORPEDO BIKE 02:39:34.55 15,79 02:39:24.05
294 GARDINI EMANUELE M M3 48 GS BULGARNO´ BIKE 2008 02:39:39.06 15,78 02:39:17.17
295 GIOVAGNOLI FABIO M ELMT 31 GC CARPEGNA AVIS ALTO MONTEFELTRO 02:39:54.05 15,76 02:25:54.05
296 CESARETTI SIMONE M M1 36 ASD VALMARACING TEAM 02:39:59.81 15,75 02:39:15.11
297 GARAVINI DAVIDE M M5 36 180 BPM 02:40:02.31 15,75 02:26:02.31
298 BACCI QUINTILIO M M4 52 ASD TEAM MATE´ 02:40:03.37 15,75 02:38:58.58
299 CONFICONI SAMUELE M M3 49 KTM FORTI E LIBERI 02:40:29.95 15,70 02:39:46.75
300 PIRONE FABIO M M2 55 ASD POLISPORTIVA BIKEFAN 02:40:32.31 15,70 02:39:47.47
301 SERENI FEDERICO M ELMT 32 TEAM SCOTT PASQUINI STELLA AZZURRA 02:40:35.82 15,69 02:39:30.12
302 PERSIGILLI ELOI M M3 50 GC MATELICA 02:40:36.56 15,69 02:40:03.06
303 PIANOSI MARCELLO M M5 37 ASD CESENA BIKE 02:40:46.31 15,67 02:40:12.11
304 FERRI MARCO M M7 7 TEAM PASSION FAENTINA 02:40:52.55 15,67 02:40:05.05
305 BUDELACCI MIRCO M M3 51 BAD SKULL ASD 02:41:03.69 15,65 02:41:03.69
306 PROSPERI RICCARDO M ELMT 33 AVIS BIKE CINGOLI 02:41:16.06 15,63 02:40:54.06
307 BOLLINI STEFANO M M2 56 SAN MARINO MTB TEAM 02:42:05.81 15,55 02:42:05.81
308 APPUGLIESE GIORDANO M M4 53 GIANLUCA FAENZA TEAM 02:42:06.20 15,55 02:41:47.47
309 TRONTI STEFANO M M4 54 TEAM CINGOLANI - SPECIALIZED 02:42:07.56 15,54 02:41:27.26
310 PIANELLI EMANUELE M M3 52 TEAM CINGOLANI - SPECIALIZED 02:42:09.20 15,54 02:41:41.41
311 MANTOVANI LUCA M M5 38 BAMBANA BIKE 02:42:14.77 15,53 02:41:40.27
312 MARTINETTI FORTUNATO M M4 55 COMERO BIKE 02:42:14.78 15,53 02:41:44.08
313 MICHELI MAURO M M2 57 GC MATELICA 02:42:44.81 15,49 02:42:10.61
314 FONTI ANDREA M M3 53 POPPINS BIKE 02:42:45.39 15,48 02:41:47.19
315 MARINI LUCA M M3 54 AVIS BIKE CINGOLI 02:42:49.55 15,48 02:42:20.55
316 BANDOLIERI SILVER M M2 58 TEAM NOB JOLLY WEAR 02:42:57.31 15,46 02:42:24.24
317 MUSSONI NICOLO´ M ELMT 34 ROWA TEAM 02:43:13.59 15,44 02:42:17.09
318 CARDINALI MARCO M M1 37 POPPINS BIKE 02:43:16.81 15,43 02:42:17.21
319 MORIGI MATTEO M M1 38 SPACCO ASD 02:43:38.05 15,40 02:43:11.11
320 PIANTANELLI DANIELE M M1 39 TEAM CINGOLANI - SPECIALIZED 02:43:44.56 15,39 02:43:05.06
321 ZAMPOLINI MARCELLO M M6 20 ASD CICLO DUCALE URBINO 02:43:44.61 15,39 02:42:44.41
322 PETRUCCI MASSIMILIANO M M4 56 BIKE THERAPY ASD 02:44:15.06 15,34 02:43:05.05
323 GUIDI DAVIDE M M2 59 RABITI DURI MTB TEAM 02:44:21.06 15,33 02:43:26.26
324 SALUCCI LUCA M ELMT 35 360 BIKE TEAM 02:44:24.06 15,33 02:43:32.32
325 RAFFINI LUCA M M2 60 UISP BOLOGNA 02:44:24.31 15,33 02:44:24.31
326 MARZOLA ANDREA M M3 55 POL. PONTE NUOVO ASD 02:44:54.81 15,28 02:44:35.31
327 BOVI ALESSIO M M2 61 ASD VALMARACING TEAM 02:45:06.80 15,26 02:44:40.40
328 LIUZZA ALESSANDRO M M3 56 ASD GRIFO BIKE PERUGIA 02:45:11.81 15,26 02:44:30.71
329 GAVIANI FILIPPO M M1 40 BAD SKULL ASD 02:45:12.31 15,25 02:44:51.31
330 CONSANI MATTEO M ELMT 36 GS BULGARNO´ BIKE 2008 02:45:15.80 15,25 02:44:52.60
331 CESETTI PAOLO M M5 39 ASD MONTI AZZURRI 02:45:20.53 15,24 02:44:12.53
332 TRONI MASSIMO M M5 40 ASD LE SALINE NATURA E SPORT 02:45:45.80 15,20 02:45:27.10
333 ACCIAI MAURIZIO M M6 21 AVIS PRATOVECCHIO-ERREPI-LEE COUGAN 02:45:51.06 15,19 02:45:34.34
334 MOSCONI PASQUALE M CT 1 PLAUTO BIKE 02:46:00.56 15,18 02:46:00.56
335 ALESSANDRINI DAVIDE M CT 2 PLAUTO BIKE 02:46:01.31 15,18 02:46:01.31
336 PISANI GIANLUCA M CT 3 PLAUTO BIKE 02:46:01.31 15,18 02:46:01.31
337 BELTRAMI MASSIMO M CT 4 PLAUTO BIKE 02:46:02.06 15,18 02:46:02.06
338 RIALTI ALESSANDRO M M4 57 AVIS PRATOVECCHIO-ERREPI-LEE COUGAN 02:46:07.58 15,17 02:46:07.58
339 GRADASSI CLAUDIO M M3 57 ASD CESENA BIKE 02:46:09.31 15,17 02:45:35.35
340 MIGLIORINI FABIO M M6 22 AVIS PRATOVECCHIO-ERREPI-LEE COUGAN 02:46:10.42 15,17 02:45:26.26
341 MARTINI MATTEO M ELMT 37 VENTURI ADVENTURE TEAM 02:46:26.05 15,14 02:45:43.43
342 PIZZICHINI MASSIMO M M4 58 ASD BIKERS RACING TEAM 02:46:27.05 15,14 02:45:28.05
343 BORGHESI CHRISTIAN M CT 6 MTB CESENA 02:46:32.31 15,13 02:46:32.31
344 TAMBURELLO SIMONE M CT 5 MTB CESENA 02:46:32.31 15,13 02:46:32.31
345 CARLI NICOLAS M ELMT 38 INDIVIDUALE 02:46:36.38 15,13 02:45:43.38
346 CARLI FLAVIO M M4 59 TEAM NOB JOLLY WEAR 02:46:36.55 15,13 02:45:45.55
347 SCORTECHINI FRANCESCO M M1 41 AVIS BIKE CINGOLI 02:46:42.95 15,12 02:45:56.75
348 AGAZZI STEFANO M M4 60 SC VECCHIAZZANO 02:46:47.30 15,11 02:45:55.55
349 NANNETTI ALBERTO M M3 58 180 BPM 02:46:48.56 15,11 02:46:10.26
350 RAVAIOLI ROBERTO M M5 41 180 BPM 02:46:48.81 15,11 02:46:10.51
351 ZAMAGNA MASSIMO M M6 23 ASD PEDALE SAMMAURESE 02:46:57.05 15,09 02:46:16.16
352 BARTOZZI FRANCESCO M M3 59 ASD BLACK RIDERS 02:46:57.56 15,09 02:46:10.06
353 FABBRI ANDREA M M4 61 ASD CESENA BIKE 02:47:07.31 15,08 02:46:33.33
354 GENTILINI RAFFAELE M M3 60 BARACCA LUGO MTB 02:47:31.56 15,04 02:47:31.56
355 CASADIO CRISTIAN M M4 62 VITAMINA TEAM 02:47:41.31 15,03 02:46:40.11
356 PADOVANI DAVIDE M M4 63 GS BULGARNO´ BIKE 2008 02:47:43.30 15,03 02:47:20.20
357 STORELLI DOMENICO PIER PAOLO M M2 62 ASD SBUBBIKERS 02:47:50.06 15,01 02:47:07.07
358 CARBINI LUCIA F MW1 5 ASD ENERGIA BARBARA 02:48:22.55 14,97 02:47:43.43
359 FAGGIOLINI CRISTIAN M M3 61 AS TARTANA BIKE 02:48:28.56 14,96 02:47:54.56
360 PAGLIALUNGA ALESSANDRO M M3 62 ASD GF RACING 02:48:38.31 14,94 02:48:03.03
361 GIOVANNINI ZEFFERINO M M7 8 A.S.D. I MUFLONI RACING TEAM 02:48:39.31 14,94 02:47:53.53
362 POLINORI FLAVIANO M M5 42 TEAM CINGOLANI - SPECIALIZED 02:48:46.45 14,93 02:47:47.25
363 FUSINI ANNARITA F MW2 3 ASD FRECCE ROSSE RIMINI 02:48:49.31 14,93 02:48:49.31
364 BELEFFI DANIELE M M2 63 TEAM NOB JOLLY WEAR 02:48:51.30 14,92 02:48:17.17
365 GIACONI ENRICO M M6 24 ASD MY PLANET CORSE 02:49:00.57 14,91 02:48:27.37
366 RANGONI EROS M M2 64 MEDICINA ASCD 02:49:13.05 14,89 02:48:48.48
367 PAGGETTI ELEONORA F MW1 6 ASD GS POPPI 02:49:23.30 14,88 02:48:30.30
368 BINDA SIMONE M M4 64 ROWA TEAM 02:49:51.27 14,84 02:48:57.57
369 VOLPINI FRANCESCO M M2 65 CONERO FREE BIKE 02:50:01.55 14,82 02:48:53.05
370 CIONNA FRANCESCO M M1 42 CONERO FREE BIKE 02:50:01.69 14,82 02:48:52.69
371 FERRI MAURO M M7 9 BAMBANA BIKE 02:50:14.31 14,80 02:49:40.40
372 FRANCHINI WALTER M CT 7 ASD MEDINOX 02:50:19.05 14,80 02:49:02.02
373 MAESTRI CRISTIANO M ELMT 39 SPORT BIKE 02:50:27.56 14,78 02:49:27.36
374 AMADUCCI ROBERTO M M6 25 180 BPM 02:50:35.31 14,77 02:49:57.57
375 MANCINI FABIO M M3 63 GS FREE BIKE A.S.D. BELLARIA-IGEA MARINA 02:50:37.31 14,77 02:49:53.53
376 COLLINI ANGELO M M3 64 VENTURI ADVENTURE TEAM 02:50:58.80 14,74 02:50:22.40
377 MANFREDI SIMONE M M3 65 CICLI NERI TEAM 02:51:09.80 14,72 02:50:30.80
378 SALVI MATHIAS M M3 66 2R BIKE STORE 02:51:15.56 14,72 02:50:31.36
379 DEL MASTRO RICCARDO M ELMT 40 AVIS BIKE CINGOLI 02:51:19.30 14,71 02:50:13.13
380 PRETELLI MARTINA F MW1 7 SAN MARINO RACE TEAM 02:51:19.33 14,71 02:50:24.24
381 PULA MARCO M M3 67 ASD POLISPORTIVA SANMAURESE NOB 02:51:19.80 14,71 02:50:50.60
382 PAGANELLI ANDREA M M4 65 ROWA TEAM 02:51:22.56 14,71 02:50:34.46
383 VALENTINI EMILIANO M M2 66 GC MATELICA 02:51:41.39 14,68 02:50:48.39
384 TONTI ANDREA M JUN 5 ASD LE SALINE NATURA E SPORT 02:51:46.55 14,67 02:51:39.55
385 TOBALDI FABRIZIO M M6 26 AVIS BIKE CINGOLI 02:51:47.05 14,67 02:51:01.01
386 GIUNTA GIANLUCA M CT 8 ASD CICLISMO MONTECCHIO 02:51:48.05 14,67 02:50:17.05
387 SIMONCINI ANDREA M ELMT 41 ASD SBUBBIKERS 02:51:49.91 14,67 02:51:13.41
388 FOSCHI LUCA M M5 43 SPORT BIKE 02:51:53.76 14,66 02:51:09.36
389 TESSARINI SILVIO M M5 44 SPORT BIKE 02:51:54.06 14,66 02:51:09.09
390 ANTONUCCI MAURIZIO M M7 10 ASD BIKE CLUB CAFFE´ 02:51:55.80 14,66 02:51:30.80
391 LEONI LUCA M M2 67 SPORT BIKE 02:51:57.55 14,66 02:50:53.35
392 CAVULLA ANNARITA F MW2 4 ASD IMOLA BIKE 02:51:59.05 14,65 02:51:36.36
393 MAZZOTTI FILIPPO M M1 43 ROWA TEAM 02:52:10.81 14,64 02:51:30.30
394 PERINI DAVID M M4 66 PEPPERBIKE TEAM 02:52:17.80 14,63 02:51:45.50
395 FARNETI ANDREA M ELMT 42 MTB CESENA 02:52:19.55 14,62 02:51:21.05
396 VERDICCHIO ANDREA M M1 44 AVIS BIKE CINGOLI 02:52:36.15 14,60 02:51:52.52
397 PRUCCOLI ANDREA M JUN 6 ASD LE SALINE NATURA E SPORT 02:52:44.55 14,59 02:52:44.55
398 CAPPARUCCINI LUCA M M2 68 ASD RAVEN TEAM 02:53:05.30 14,56 02:52:33.33
399 BASCHETTI CRISTIAN M M2 69 SCORPION BIKE MTB 02:53:05.33 14,56 02:52:23.23
400 VENTURI STEFANO M M2 70 360 BIKE TEAM 02:53:58.81 14,49 02:53:00.21
401 GOLFERA FABRIZIO M M6 27 TEAM PASSION FAENTINA 02:53:58.83 14,49 02:53:58.83
402 PAOLI EMILIANO M M3 68 A.S.D. I MUFLONI RACING TEAM 02:54:09.31 14,47 02:53:22.22
403 TORELLI FRANCESCO M M4 67 ASD FUORI DI SELLA 02:54:13.30 14,46 02:53:20.20
404 ARLOTTI MAURIZIO M M5 45 TEAM TORPEDO BIKE 02:54:15.44 14,46 02:53:47.14
405 MONALDI DANIELE M M3 69 SAN MARINO RACE TEAM 02:54:45.30 14,42 02:54:11.10
406 PALMIERI VIRNA F MW1 8 AVIS BIKE CINGOLI 02:54:54.88 14,41 02:54:11.08
407 CAMPITELLI MATTIA M M2 71 GRUPPO TNT 02:55:47.31 14,34 02:55:08.08
408 PROKO OLSI M M2 72 GS MONTEFELTRO 02:55:55.06 14,32 02:55:15.15
409 NOVELLI MIRCO M M2 73 ASD VALMARACING TEAM 02:56:02.30 14,32 02:54:59.59
410 GIANNINI GIANPAOLO M M5 46 AVIS PRATOVECCHIO-ERREPI-LEE COUGAN 02:56:23.89 14,29 02:56:23.89
411 FORTI FABIO M M3 70 FREE BIKE CESENA 02:56:25.45 14,28 02:55:22.25
412 CUCCHI GIANNI M M3 71 ASD PEDALE SAMMAURESE 02:56:25.47 14,28 02:56:25.47
413 SOLDATI LUCA M M3 72 POLISPORTIVA CANONICA 02:56:38.29 14,27 02:55:39.39
414 QUERZOLA FRANCESCA F MW1 9 ASD IMOLA BIKE 02:56:39.30 14,27 02:56:15.20
415 PONTE MARCO M M4 68 ASD CRAZY BIKE CAMERANO 02:56:40.30 14,26 02:55:44.30
416 SEBASTIANI MASSIMO M CT 9 PEDALE LENTO STELLA 02:57:05.56 14,23 02:57:05.56
417 SCAGLI ANDREA M M3 73 TEAM BIKE LUNANO 02:57:06.20 14,23 02:56:18.18
418 MORRI MARCO M M3 74 ASD SBUBBIKERS 02:57:21.05 14,21 02:56:42.05
419 SPADONI GIORGIO M M3 75 AVIS BIKE CINGOLI 02:57:22.55 14,21 02:56:15.05
420 SALUCCI MASSIMO M M4 69 360 BIKE TEAM 02:58:06.80 14,15 02:57:08.10
421 COLOMBO ROBERTO M M5 47 BARACCA LUGO MTB 02:58:34.56 14,11 02:58:09.36
422 LUSINI SILVANO M M6 28 TRIAL BIKE LUGO 02:58:34.70 14,11 02:57:45.50
423 PALMIERI NAZARENO M M7 11 AVIS BIKE CINGOLI 02:58:35.12 14,11 02:57:49.49
424 GIULIANELLI ANDREA M M2 74 ASD CICLI ROSSINI 02:58:38.30 14,11 02:57:25.25
425 BARTOLINI LUCA M M1 45 GOOD BIKE AS RONCOFREDDESE 02:58:40.05 14,10 02:58:40.05
426 UBALDI LEONARDO M ELMT 43 ASD POLISPORTIVA BIKEFAN 02:58:55.80 14,08 02:57:59.10
427 CAMILLETTI GIULIO M M1 46 ASD CICLI ROSSINI 02:59:06.05 14,07 02:57:54.54
428 POLLINI ALESSANDRO M M3 76 FREE BIKE CESENA 02:59:23.81 14,05 02:58:23.23
429 CAVALLUCCI GABRIELE M CT 10 ASD LE SALINE NATURA E SPORT 02:59:28.05 14,04 02:58:07.07
430 GARBUGLI GIACOMO M M3 77 A.S.D. I MUFLONI RACING TEAM 02:59:30.05 14,04 02:58:17.17
431 SEVERI MARCO M M3 78 ASD IMOLA BIKE 02:59:33.31 14,04 02:59:00.00
432 CURZI MARCO M M3 79 PEDALE LENTO STELLA 02:59:42.95 14,02 02:58:57.95
433 FORASTIERI STEFANO M M4 70 SPORT BIKE 02:59:56.19 14,01 02:58:56.56
434 BISSIONI LORENZO M M7 12 TEAM TORPEDO BIKE 03:00:05.80 13,99 02:59:45.70
435 CASALBONI ALESSANDRO M ELMT 44 TEAM BIKE COCIF.COM ASD 03:00:11.31 13,99 02:59:53.53
436 MORETTI TIBERIO M M6 29 UISP FORLI´ 03:00:27.44 13,97 02:59:26.26
437 TONTINI FABIO M CT 11 INDIVIDUALE 03:00:55.88 13,93 02:59:16.88
438 COLLINA ERALDO M CT 12 PEDALE LENTO STELLA 03:00:56.67 13,93 02:59:38.38
439 CHELI GIANDOMENICO M CT 13 INDIVIDUALE 03:00:57.13 13,93 02:59:17.17
440 MELLINI ELIA M CT 14 INDIVIDUALE 03:00:57.89 13,93 02:59:14.69
441 PRETELLI LUCA M M4 71 ASD EMMEDIBIKE 03:01:04.99 13,92 03:00:15.99
442 TOSI MASSIMO M M6 30 ASD SBUBBIKERS 03:01:10.56 13,91 03:00:34.06
443 BORGIA ANTONELLO M M6 31 GC CARPEGNA AVIS ALTO MONTEFELTRO 03:01:27.81 13,89 03:00:37.61
444 TASSINI LUIGI M CT 15 INDIVIDUALE 03:01:48.06 13,86 03:00:32.06
445 GIOVAGNOLI ANTIMO M M7 13 GC CARPEGNA AVIS ALTO MONTEFELTRO 03:01:59.56 13,85 03:01:39.36
446 TICCHI DAVIDE M M1 47 ASD SBUBBIKERS 03:02:01.30 13,84 03:01:18.10
447 BEDETTI MAURIZIO M M3 80 VISERBA BIKE TEAM 03:02:06.81 13,84 03:01:14.11
448 BINI GIAN LUCA M M5 48 ASD GREEN DEVILS 03:03:10.94 13,76 03:02:04.24
449 ZAFFERANI MICHELE M M2 75 SAN MARINO MTB TEAM 03:03:22.80 13,74 03:02:47.60
450 BERARDI VITTORIO M ELMT 45 360 BIKE TEAM 03:03:22.81 13,74 03:02:42.61
451 MAZZI MASSIMO M M7 14 CAVALLINO - SPECIALIZED 03:03:24.44 13,74 03:02:51.24
452 MANCINI STEFANO M M4 72 ASD POLISPORTIVA BIKEFAN 03:03:47.45 13,71 03:02:48.48
453 MAROZZI MAURIZIO M M5 49 ASD SC VILLA SANT´ANTONIO 03:03:47.67 13,71 03:03:10.67
454 ROBERTI DAVIDE M M1 48 POL. 5 CERCHI 03:03:55.06 13,70 03:02:55.55
455 PELLEGRINI MARCO M M7 15 BAMBANA BIKE 03:04:37.80 13,65 03:03:35.60
456 AMBROSINI MATTEO M M2 76 ASD SBUBBIKERS 03:04:38.55 13,65 03:03:53.55
457 MORDENTI FERNANDO M M6 32 ASD TEAM COMACO 03:05:03.20 13,62 03:04:14.14
458 CIASCA CRISTIAN M CT 16 ASD MONKEY SURF RICCIONE 03:05:05.31 13,62 03:03:40.31
459 BUZZI CLAUDIA F MW2 5 ASD BIKE INNOVATION SQUADRA CORSE 03:05:27.94 13,59 03:04:37.44
460 VAGNONI CESARE M M5 50 PEDALE LENTO STELLA 03:05:30.80 13,58 03:04:38.50
461 RAPONI DANIELE M M2 77 ASD CUCCO IN BIKE 03:05:30.94 13,58 03:04:34.44
462 MARI ALESSANDRO M M5 51 A.S.D. I MUFLONI RACING TEAM 03:05:36.30 13,58 03:04:44.10
463 BERARDINELLI MATTEO M M1 49 TEAM CINGOLANI - SPECIALIZED 03:05:43.81 13,57 03:05:03.11
464 VEGGETTI ALBERTO M M4 73 MTB ADVENTURE BOLOGNA TEAM 03:05:45.20 13,57 03:04:50.50
465 CAPUANI ROBERTO M CT 17 INDIVIDUALE 03:05:47.19 13,56 03:04:31.31
466 MECOZZI SIMONE M CT 18 PEDALE LENTO STELLA 03:06:31.09 13,51 03:05:10.09
467 CASANOVA ROBERTO M M4 74 TEAM BIKE COCIF.COM ASD 03:06:31.09 13,51 03:05:26.09
468 BENIGNI CLEMENTE M CT 19 PEDALE LENTO STELLA 03:06:31.29 13,51 03:05:12.09
469 COPPARI ALESSANDRO M M4 75 AVIS BIKE CINGOLI 03:06:33.31 13,51 03:05:47.47
470 GARDINI ALESSANDRO M M3 81 ASD GS ARS ET ROBUR - NEW ENERGY BIKE TEAM 03:07:19.81 13,45 03:06:37.61
471 FANTINI MAURIZIO M M3 82 FREE BIKE CESENA 03:07:27.55 13,44 03:06:25.25
472 VALFRE SALVATORE M M5 52 MEDICINA ASCD 03:07:38.62 13,43 03:07:10.42
473 BALDININI DANIELA F MW2 6 ASD MEDINOX 03:07:40.04 13,43 03:07:21.21
474 ROSSI PIERO M M5 53 ASD SC VILLA SANT´ANTONIO 03:08:06.30 13,40 03:07:30.30
475 DOIMO MATHIAS M M1 50 ASD DREAM TEAM 03:08:07.30 13,40 03:07:32.32
476 CAMPITELLI STEFANIA F MW2 7 PEDALE LENTO STELLA 03:08:09.06 13,39 03:06:52.52
477 AGOSTINI FABRIZIO M M4 76 ASD GREEN TEAM 03:08:10.56 13,39 03:07:17.26
478 CASTALDELLI ELISA F MW1 10 TEAM FERRARA BIKE 03:08:31.06 13,37 03:07:49.49
479 PETROLLINO DANILO M M2 78 MEDICINA ASCD 03:08:35.55 13,36 03:08:07.35
480 BARTOLINI SINCERO M M6 33 CICLI MATTEONI - BIANCHI 03:08:51.30 13,34 03:07:52.52
481 BALDACCI LAURA F MW2 8 CICLI MATTEONI - BIANCHI 03:08:51.32 13,34 03:08:51.32
482 VALLICELLI PAOLO M CT 20 PEDAL CLUB OFFICINA A PEDALI ASD 03:09:29.31 13,30 03:08:02.02
483 MALDINI SIMONE M M4 77 CICLI MATTEONI - BIANCHI 03:10:05.29 13,26 03:09:08.29
484 DIFILIPPO PIERGIORGIO M M5 54 ASD SBUBBIKERS 03:10:11.55 13,25 03:09:30.55
485 FAGGIOLI ANDREA M M5 55 ASD CESENA BIKE 03:10:12.44 13,25 03:09:39.39
486 SABBIONI MAURIZIO M M5 56 ASD BICI CLUB MONTE SAN PIETRO 03:10:37.56 13,22 03:09:27.06
487 CARLETTI DAVIDE M CT 21 AVIS BIKE CINGOLI 03:11:21.05 13,17 03:10:08.08
488 BELARDINELLI LEONARDO M CT 22 INDIVIDUALE 03:11:23.19 13,17 03:10:08.08
489 PRIMAVERA ALESSANDRO M M1 51 TEAM CINGOLANI - SPECIALIZED 03:11:24.70 13,17 03:10:28.28
490 LAMASSA GIOVAN GIACOMO M M1 52 AVIS BIKE CINGOLI 03:11:54.06 13,13 03:11:11.06
491 BARTOLINI MATTEO M M1 53 TEAM CINGOLANI - SPECIALIZED 03:12:01.25 13,12 03:11:21.05
492 MARCHETTI SONIA F MW1 11 ASD CRAZY BIKE CAMERANO 03:12:03.18 13,12 03:11:29.18
493 DALL´AGLIO IVAN M M1 54 ASD IMOLA BIKE 03:12:38.69 13,08 03:11:37.19
494 D´ANESIO GIORDANO M M1 55 ASD CICLI ROSSINI 03:12:47.80 13,07 03:11:34.34
495 GROSSI ENRICO M M4 78 ASD EMMEDIBIKE 03:12:52.06 13,07 03:12:01.01
496 GARUFFI PAOLO M M6 34 ASD SBUBBIKERS 03:13:10.05 13,05 03:12:32.32
497 STROCCHI CLAUDIO M CT 23 ASD CIRCOLO ARCI MARZENO 03:13:39.05 13,01 03:12:22.22
498 FASOLA ANDREA M CT 24 INDIVIDUALE 03:13:52.56 13,00 03:12:32.06
499 PISELLI NADIA F MW2 9 CICLI MATTEONI - BIANCHI 03:14:06.55 12,98 03:13:03.35
500 GRAMACCINI LUCA M M4 79 NUOVA PEDALE CIVITANOVESE 03:14:31.31 12,96 03:13:31.31
501 BERARDI GIAN MATTEO M M4 80 ASD BLACK ROAD 03:14:31.45 12,96 03:13:41.41
502 BARBARINI MICHELE M M2 79 BIKE THERAPY ASD 03:14:33.57 12,95 03:13:22.22
503 GAGLIANO CLARA F MW2 10 BAMBANA BIKE 03:14:39.64 12,95 03:14:04.64
504 MELAI ALBERTO M M5 57 ASD ORO BIANCO PIRATA TEAM CERVIA 03:14:54.04 12,93 03:13:54.54
505 CALVANO DAVIDE M M2 80 CICLI NERI TEAM 03:15:03.80 12,92 03:13:59.80
506 CARBONI SERGIO M M6 35 ASD BICI CLUB MONTE SAN PIETRO 03:15:16.80 12,91 03:14:05.60
507 FRASCARELLI CINZIA F MW2 11 ASD MONTI AZZURRI 03:16:08.46 12,85 03:15:03.03
508 ROSSINI MIRKO M M2 81 ASD CICLI ROSSINI 03:16:11.05 12,85 03:15:00.00
509 MANOCCHI DANILO M M6 36 ASD MONTI AZZURRI 03:16:11.10 12,85 03:15:03.03
510 BARTOLONI GIANNI M M5 58 SAN MARINO MTB TEAM 03:16:23.05 12,83 03:16:00.00
511 PULA LORIS M M6 37 ASD VALMARACING TEAM 03:16:30.55 12,82 03:15:35.55
512 MOROTTI LUCA M M3 83 360 BIKE TEAM 03:16:30.94 12,82 03:15:38.74
513 LOMBARDO MARCO M M3 84 MEDICINA ASCD 03:16:39.06 12,81 03:16:12.12
514 MURARO ANDREA M CT 25 SAN MARINO MTB TEAM 03:16:42.55 12,81 03:15:28.28
515 TORSANI FABIO M CT 26 SAN MARINO MTB TEAM 03:16:43.05 12,81 03:15:29.29
516 FIORAVANTI ANDREA M M3 85 PEDALE LENTO STELLA 03:17:47.06 12,74 03:16:38.38
517 BOLLINI OMAR M M2 82 CICLI MATTEONI - BIANCHI 03:18:06.06 12,72 03:17:05.05
518 FORLANI ANDREA M ELMT 46 360 BIKE TEAM 03:18:18.80 12,71 03:17:26.26
519 DEL BENE VALERIO M ELMT 47 360 BIKE TEAM 03:18:19.05 12,71 03:17:38.05
520 FINI EMANUELE M ELMT 48 SCORPION BIKE MTB 03:18:25.81 12,70 03:17:28.11
521 SUCCI STEFANO M CT 27 HOBBY BIKE CLUB MTB 03:18:28.55 12,70 03:17:00.55
522 ZAVALLONI AURELIO M CT 28 HOBBY BIKE CLUB MTB 03:18:28.60 12,70 03:17:01.40
523 BASTIANELLI MATTEO M ELMT 49 360 BIKE TEAM 03:18:29.19 12,70 03:17:48.19
524 ZAMAGNI MATTIA M ELMT 50 360 BIKE TEAM 03:18:29.30 12,70 03:17:32.32
525 RIGHI MATTEO M CT 29 ASD CICLISMO MONTECCHIO 03:19:01.05 12,66 03:17:31.05
526 ZACCHINI MAURIZIO M M5 59 ASD GREEN DEVILS 03:19:10.55 12,65 03:18:04.55
527 BANELLI FABIO M M4 81 MTB RACE SUBBIANO 03:19:33.09 12,63 03:18:28.28
528 MORETTI MANUELE M M3 86 PEPPERBIKE TEAM 03:19:39.55 12,62 03:18:56.55
529 GESSI PAOLO M M6 38 ASD SBUBBIKERS 03:20:46.80 12,55 03:20:08.60
530 TABANELLI ANDREA M M5 60 TRIAL BIKE LUGO 03:20:49.05 12,55 03:19:48.48
531 BORGHI STEFANO M M3 87 MEDICINA ASCD 03:21:08.05 12,53 03:20:39.39
532 AMADUZZI GRAZIANO M CT 30 ASD SBUBBIKERS 03:21:08.55 12,53 03:19:36.55
533 DI LETO ALFONSO GIANFRANCO M M3 88 ASD SBUBBIKERS 03:21:32.80 12,50 03:20:49.30
534 TREVISAN LUCA M M3 89 MEDICINA ASCD 03:21:53.80 12,48 03:21:24.00
535 TUZI ANTONELLO M M5 61 ASD BICI CLUB SIBILLINI 03:22:26.05 12,45 03:21:24.24
536 GIACOBBI SIMONE M CT 31 INDIVIDUALE 03:22:29.31 12,45 03:21:18.31
537 CELLAURO ANDREA M M3 90 UISP RIMINI 03:22:29.81 12,45 03:21:19.21
538 SAVINI SERGIO M M4 82 PEDALE LENTO STELLA 03:22:30.06 12,44 03:21:36.06
539 AMELI PAOLO M M5 62 PEDALE LENTO STELLA 03:22:30.31 12,44 03:21:36.11
540 GOBBI NIKOLAS M M1 56 ASD SBUBBIKERS 03:22:47.37 12,43 03:21:35.35
541 SEMPRINI MARCO M M3 91 ASD SBUBBIKERS 03:23:02.80 12,41 03:22:19.10
542 CUSANO FLORINDO M CT 32 MTB CASERTA ASD 03:23:05.30 12,41 03:23:05.30
543 FASSA MARIO M CT 33 A.S.D. I MUFLONI RACING TEAM 03:23:21.05 12,39 03:22:05.05
544 MARABINI ANDREA M CT 34 BAMBANA BIKE 03:23:37.68 12,38 03:21:56.68
545 BIANCHINI PAOLO M M5 63 GOOD BIKE AS RONCOFREDDESE 03:23:46.82 12,37 03:22:47.82
546 ALATI GIUSEPPE M M3 92 RABITI DURI MTB TEAM 03:23:56.12 12,36 03:23:00.00
547 PAGANINI FABIO M M5 64 180 BPM 03:24:08.30 12,34 03:23:10.10
548 BATTAGLIA GIUSEPPE M M4 83 ASD TEAM BIKE VALCONCA 03:24:11.55 12,34 03:23:03.15
549 GALLI VITO M M7 16 GS CELLA 03:24:46.04 12,31 03:23:55.55
550 CALBI PAOLA F MW2 12 ASD CESENA BIKE 03:24:59.80 12,29 03:24:22.40
551 BETTI ALBERTO M M6 39 ASD CESENA BIKE 03:24:59.85 12,29 03:24:23.23
552 FANTINI ROMANO M M7 17 ASD CESENA BIKE 03:24:59.85 12,29 03:24:22.22
553 ZOFFOLI ALICE F MW2 13 ASD CESENA BIKE 03:24:59.94 12,29 03:24:23.24
554 PRATI MARCO M M4 84 ASD CESENA BIKE 03:25:00.44 12,29 03:24:23.23
555 PERONI MONICA F CT 35 ASD CIRCOLO ARCI MARZENO 03:25:01.63 12,29 03:23:47.23
556 SIDERI PAOLO M CT 36 ASD CICLISMO MONTECCHIO 03:25:02.64 12,29 03:23:33.33
557 BIANCHI MIRKO M CT 37 ASD CICLISMO MONTECCHIO 03:25:02.80 12,29 03:23:30.60
558 SAMBUCHI FRANCESCO M CT 38 ASD CICLISMO MONTECCHIO 03:25:03.05 12,29 03:23:32.32
559 PIERLEONI NICOLA M CT 39 ASD CICLISMO MONTECCHIO 03:25:03.54 12,29 03:23:33.04
560 BENIGNI MARCO M CT 40 PEDALE LENTO STELLA 03:25:35.29 12,26 03:24:18.18
561 TITTARELLI LUIGI M M3 93 ASD AEROSKITEAM PRO CYCLING 03:25:49.30 12,24 03:24:40.30
562 CAMPIDELLI ROBERTO M CT 41 ASD SBUBBIKERS 03:26:02.04 12,23 03:24:28.04
563 BALDONI TAMARA F CT 42 SPECIALISSIMA BIKE TEAM 03:26:23.54 12,21 03:25:00.00
564 MARCHESINI DANIELE M CT 43 SPECIALISSIMA BIKE TEAM 03:26:23.56 12,21 03:24:58.16
565 GARATTONI GUIDO M CT 44 ASD CIRCOLO ARCI MARZENO 03:26:38.94 12,20 03:25:18.84
566 BENTIVOGLIO GIANLUCA M CT 45 PEDAL CLUB OFFICINA A PEDALI ASD 03:27:11.18 12,16 03:25:43.43
567 VALENTINI PAOLO M CT 46 ASD SBUBBIKERS 03:27:50.18 12,13 03:26:25.25
568 GIANNINI TULLIO M M6 40 ASD VALMARACING TEAM 03:27:50.36 12,13 03:26:46.46
569 FILONZI FLAVIO M M7 18 TEAM CINGOLANI - SPECIALIZED 03:28:18.30 12,10 03:28:18.30
570 MORRI IVANO M CT 47 ASD LE SALINE NATURA E SPORT 03:28:34.36 12,08 03:27:13.13
571 BANDINI FABRIZIO M CT 48 TRIAL BIKE LUGO 03:29:01.55 12,06 03:27:25.35
572 BELLEI MARCO M M6 41 GS CELLA 03:29:04.19 12,05 03:28:33.19
573 BARIGELLI ANDREA M CT 49 ASD RAVEN TEAM 03:29:09.43 12,05 03:27:55.23
574 BUGLI GIANLUCA M CT 50 VISERBA BIKE TEAM 03:29:40.07 12,02 03:28:07.07
575 SELVA SIMONA F CT 51 ASD SBUBBIKERS 03:29:40.30 12,02 03:28:06.00
576 SIMONE ROSANGELA F MW1 12 TEAM BIKE COCIF.COM ASD 03:29:45.55 12,01 03:29:45.55
577 FORTI GIULIA F MW1 13 ASD SBUBBIKERS 03:29:45.56 12,01 03:29:08.36
578 MORDENTI CRISTIANO M CT 52 VENTURI ADVENTURE TEAM 03:29:46.40 12,01 03:28:16.10
579 ORTU EMANUELE M CT 53 VENTURI ADVENTURE TEAM 03:30:02.05 12,00 03:28:32.32
580 RONCHI PIERLUCA M CT 54 BAMBANA BIKE 03:30:22.94 11,98 03:28:41.44
581 MORRI ALESSIA F MW1 14 ASD LE SALINE NATURA E SPORT 03:30:44.80 11,96 03:30:37.10
582 BORGHESI MASSIMO M M3 94 ASD LE SALINE NATURA E SPORT 03:30:44.80 11,96 03:30:25.80
583 LINGUITI LUIGI M M4 85 INDIVIDUALE 03:31:03.42 11,94 03:30:06.02
584 MAZZA GIUSEPPE M M4 86 ASD SBUBBIKERS 03:31:03.94 11,94 03:29:49.24
585 SANTUCCI FEDERICO M CT 55 INDIVIDUALE 03:31:05.29 11,94 03:29:29.29
586 FABRELLI FRANCESCO M CT 56 INDIVIDUALE 03:31:05.43 11,94 03:29:30.30
587 LONGHI DAVIDE M CT 57 360 BIKE TEAM 03:31:05.79 11,94 03:29:30.09
588 BOSI FABIO M CT 58 SPECIALISSIMA BIKE TEAM 03:31:09.69 11,93 03:29:47.49
589 MORETTI MARINO M M7 19 SAN MARINO MTB TEAM 03:31:47.05 11,90 03:30:52.52
590 BERARDI CRISTIAN M CT 59 A.S. DILETTANTISTICA BIKERS RICCIONE 03:31:50.55 11,90 03:30:33.35
591 FAIELLA FEDERICO M M4 87 ASD SBUBBIKERS 03:32:11.30 11,88 03:31:02.00
592 BRANDI CRISTIAN M M1 57 GC CARPEGNA AVIS ALTO MONTEFELTRO 03:32:59.30 11,83 03:32:59.30
593 ROMUALDI FABIO M M3 95 MEDICINA ASCD 03:33:00.84 11,83 03:32:28.14
594 SAVIN BORIS M CT 60 SPECIALISSIMA BIKE TEAM 03:33:37.55 11,80 03:32:14.05
595 DI LELLA MASSIMILIANO M M4 88 ASD EMMEDIBIKE 03:34:05.94 11,77 03:33:15.74
596 CARLINI ENRICO M CT 61 VISERBA BIKE TEAM 03:35:07.44 11,71 03:33:34.34
597 DONATI DANILO M CT 62 LA PEDIVELLA 03:35:58.43 11,67 03:34:35.13
598 CIAVATTI MASSIMO M CT 63 ASD BLACK ROAD 03:35:58.54 11,67 03:34:36.36
599 ZACCHINI STEFANO M M5 65 ASD SBUBBIKERS 03:36:01.30 11,67 03:35:12.12
600 DI MATTIA PARIDE M M2 83 PEDALE LENTO STELLA 03:37:40.05 11,58 03:36:45.45
601 CATTANEO MASSIMILIANO M M4 89 GS FREE BIKERS CORPOLO´ 03:38:08.69 11,55 03:37:10.69
602 SAPIGNOLI ADELMO M M4 90 GS FREE BIKERS CORPOLO´ 03:38:10.55 11,55 03:37:10.35
603 ALEOTTI NICOLA M CT 64 PEDAL CLUB OFFICINA A PEDALI ASD 03:38:33.30 11,53 03:37:06.06
604 FABBRI ALESSANDRO M CT 65 STELLA AZZURRA ASD 03:39:03.29 11,50 03:37:33.29
605 SARTINI MORIS M M3 96 STELLA AZZURRA ASD 03:39:04.04 11,50 03:38:00.00
606 PAGANELLI STEFANO M M3 97 ASD STELLA AZZURRA 03:39:04.29 11,50 03:37:59.29
607 CATANI LUCA M CT 66 SPECIALISSIMA BIKE TEAM 03:39:06.29 11,50 03:37:41.09
608 DI ROMA ANTONIO M CT 67 SPECIALISSIMA BIKE TEAM 03:39:16.04 11,49 03:37:49.49
609 PARI SARA F MW1 15 ASD SBUBBIKERS 03:39:48.67 11,46 03:39:00.67
610 DRUDI MARCO M M4 91 ASD SBUBBIKERS 03:39:48.67 11,46 03:38:32.47
611 ZAMAGNI GIACOMO M M3 98 ASD SBUBBIKERS 03:39:49.05 11,46 03:39:01.05
612 GRAZIANI NICOLA M M4 92 DEKA RIDERS TEAM BIKE ROMAGNA 03:40:00.80 11,45 03:39:03.20
613 NERI ROMINA F MW2 14 ASD GRAMA 03:40:02.04 11,45 03:40:02.04
614 DRUDI LORENZO M ELMT 51 SPORT BIKE 03:40:02.79 11,45 03:40:02.79
615 FACCHIN GIORGIA F CT 68 SPECIALISSIMA BIKE TEAM 03:40:04.18 11,45 03:38:40.40
616 MANENTI MARCO M CT 69 SPECIALISSIMA BIKE TEAM 03:40:04.29 11,45 03:38:40.29
617 FABBRI STEFANO M M4 93 ASD SBUBBIKERS 03:40:11.54 11,45 03:38:56.56
618 MONTI MAURIZIO M M4 94 ASD CESENA BIKE 03:40:36.30 11,42 03:39:59.59
619 PAOLUCCI MICHELE M M2 84 360 BIKE TEAM 03:40:52.79 11,41 03:39:55.39
620 DI GRISTINA GIOVANNI M CT 70 INDIVIDUALE 03:41:37.55 11,37 03:40:16.35
621 SGARBI LUCA M M1 58 ROMAGNA BIKE GRANDI EVENTI 03:42:12.80 11,34 03:41:05.10
622 TIBERI ANTONIO M CT 71 INDIVIDUALE 03:42:20.04 11,33 03:40:54.04
623 ANTONELLI PAOLO M CT 72 SPECIALISSIMA BIKE TEAM 03:43:11.29 11,29 03:41:45.45
624 CASADEI MIRKO M CT 73 PEDAL CLUB OFFICINA A PEDALI ASD 03:43:39.43 11,27 03:42:11.43
625 AGOSTINI FABRIZIO M M6 42 ASD VALMARACING TEAM 03:43:39.54 11,27 03:42:42.42
626 BABINI ETTORE M CT 74 VENTURI ADVENTURE TEAM 03:44:20.05 11,23 03:42:49.49
627 CORTINI DONATELLA F MW2 15 TEAM PASSION FAENTINA 03:44:59.55 11,20 03:44:09.15
628 BALLARDINI GIUSEPPE M M7 20 TEAM PASSION FAENTINA 03:44:59.80 11,20 03:43:46.30
629 SCARABELLI FABIO M CT 75 SPECIALISSIMA BIKE TEAM 03:47:36.05 11,07 03:46:12.12
630 CERRI PIERANGELO M CT 76 VELO CLUB CATTOLICA 03:48:18.05 11,04 03:46:56.56
631 CESARINI GIAN VIRGILIO M CT 77 360 BIKE TEAM 03:48:18.30 11,04 03:46:56.10
632 MIRANDOLA STEFANO M M5 66 ASD BICI CLUB MONTE SAN PIETRO 03:48:24.43 11,03 03:47:15.15
633 FINOCCHI ALESSANDRO M M4 95 ASD BICI CLUB MONTE SAN PIETRO 03:48:32.29 11,03 03:47:20.20
634 BAIONI ALESSANDRO M CT 78 INDIVIDUALE 03:48:45.55 11,02 03:47:25.55
635 BULDRINI BARBARA F CT 79 VISERBA BIKE TEAM 03:49:14.55 10,99 03:47:43.43
636 SUZZI GIANLUCA M CT 80 LA PEDIVELLA 03:49:54.05 10,96 03:48:31.31
637 MANTOVANI GIORGIO M CT 81 TEAM CINGOLANI - SPECIALIZED 03:51:00.04 10,91 03:49:47.47
638 PARASSIANI RICCARDO M CT 82 LEPRI DI ROMAGNA 03:52:25.04 10,84 03:50:57.57
639 PROTTI MATTEO M CT 84 A.S. DILETTANTISTICA BIKERS RICCIONE 03:52:36.79 10,83 03:51:20.39
640 AMBROSINI MARCO M CT 83 A.S. DILETTANTISTICA BIKERS RICCIONE 03:52:36.79 10,83 03:51:18.69
641 BASTIA SANDRO M M5 67 ASD GREEN DEVILS 03:53:31.65 10,79 03:52:24.24
642 FILOTTRANI DIEGO M M4 96 AVIS BIKE CINGOLI 03:54:36.94 10,74 03:53:35.94
643 MANSUETO MASSIMILIANO M CT 85 ASD VALMARECCHIA MOUNTAIN BIKE 03:55:59.90 10,68 03:54:40.80
644 ARLOTTI ANDREA M M3 99 FREE BIKE CESENA 03:56:02.93 10,68 03:55:17.73
645 FAZIANI DENISE F MW1 16 ROMAGNA BIKE GRANDI EVENTI 03:56:03.79 10,68 03:54:52.79
646 MATTIOLI VALERIO M CT 86 PEDALE LENTO STELLA 03:57:20.04 10,62 03:56:01.01
647 GUAGNELI MASSIMO M CT 87 ASD LE SALINE NATURA E SPORT 03:58:44.79 10,56 03:57:25.29
648 GUERRA DENISE F CT 88 ASD POLISPORTIVA BIKEFAN 03:59:45.04 10,51 03:58:22.22
649 VENTURI LUCA M M5 68 SPORT BIKE 04:01:27.80 10,44 04:00:24.24
650 BASTIANELLI MANUELE M CT 89 INDIVIDUALE 04:02:49.04 10,38 04:01:28.28
651 BRUSCHI GIANLUCA M M4 97 CICLISTI IMPROBABILI BIKE TEAM ASD 04:02:55.30 10,37 04:01:47.47
652 GOZZOLI MICHELE M M3 100 SPORT BIKE 04:03:34.05 10,35 04:02:31.31
653 BATTISTINI ROBERTO M M3 101 SPORT BIKE 04:03:34.30 10,35 04:02:30.20
654 ZANNI IVANO M M5 69 ASD BICI CLUB MONTE SAN PIETRO 04:03:39.54 10,34 04:02:27.54
655 CAPPELLI LUCA M M4 98 CICLISTI IMPROBABILI BIKE TEAM ASD 04:04:47.79 10,29 04:03:41.49
656 PESARESI MASSIMO M M5 70 CICLISTI IMPROBABILI BIKE TEAM ASD 04:04:48.04 10,29 04:03:42.42
657 LEARDINI ALEX M ELMT 52 ASD POLISPORTIVA BIKEFAN 04:07:31.29 10,18 04:06:22.22
658 GAMBERINI MATTEO M ELMT 53 ASD POLISPORTIVA BIKEFAN 04:07:32.04 10,18 04:06:17.17
659 POLVERELLI EROS M CT 90 ASD LE SALINE NATURA E SPORT 04:07:57.03 10,16 04:06:35.35
660 PATRIGNANI ROBERTA F CT 91 ASD SBUBBIKERS 04:08:46.03 10,13 04:07:13.13
661 CATRANI NICOLA M CT 92 VISERBA BIKE TEAM 04:08:46.53 10,13 04:07:13.13
662 BRIGHETTI MAURIZIO M M6 43 ASD BICI CLUB MONTE SAN PIETRO 04:09:01.04 10,12 04:07:49.04
663 BORDONI FEDERICO M CT 93 ASD STELLA AZZURRA 04:10:47.79 10,05 04:09:19.59
664 SANDROLINI STEFANO M M6 44 ASD BICI CLUB MONTE SAN PIETRO 04:10:51.79 10,05 04:09:38.79
665 RANZI LORELLA F CT 94 ASD CIRCOLO ARCI MARZENO 04:12:17.54 9,99 04:10:47.47
666 LUCCHETTI GIANLUCA M M5 71 CAVALLINO - SPECIALIZED 04:14:44.79 9,89 04:13:57.57
667 MUSSONI CLAUDIA F CT 95 ASD SBUBBIKERS 04:16:28.04 9,83 04:14:55.55
668 RENZI EMANUELE M CT 96 A.S. DILETTANTISTICA BIKERS RICCIONE 04:16:45.42 9,81 04:15:30.30
669 RICCI DANIELE M CT 97 ASD STELLA AZZURRA 04:20:04.93 9,69 04:18:40.43
670 NICOLINI ANDREA M ELMT 54 ASD SBUBBIKERS 04:20:47.44 9,66 04:19:31.31
671 URBINI CARLOTTA F MW1 17 TEAM BIKE COCIF.COM ASD 04:20:56.54 9,66 04:20:30.34
672 DE ANGELIS NAZZARENO M CT 98 PEDALE LENTO STELLA 04:26:17.29 9,46 04:25:00.00
673 UBALDI GIULIANO M CT 99 ASD LE SALINE NATURA E SPORT 04:28:00.03 9,40 04:28:00.03
674 MIGNANI LUCA M CT 100 ASD LE SALINE NATURA E SPORT 04:28:00.28 9,40 04:28:00.28
675 TOMASETTI ANDREA M CT 101 ASD STELLA AZZURRA 04:28:05.54 9,40 04:26:38.34
676 PEZZI GIORGIO M CT 102 SPECIALISSIMA BIKE TEAM 04:33:49.53 9,20 04:32:22.53
677 BARUZZI KATIA F CT 103 SPECIALISSIMA BIKE TEAM 04:33:49.78 9,20 04:32:24.24
678 URCIA STEFANO M CT 104 SPECIALISSIMA BIKE TEAM 04:34:09.53 9,19 04:32:48.48
679 CELLAROSI GIANFRANCO M M4 99 ASD SBUBBIKERS 04:40:02.53 9,00 04:39:12.53
DNF BOLOGNA LUCA M M7 - TEAM NOB JOLLY WEAR - - -

CORTO - 22.0 Km

Pos Atleta Sesso Cat PosC Team Tempo Media RTime
Sq. GAVAGNI REMO M M5 - CAVALLINO - SPECIALIZED 01:30:28.58 14,59 01:30:28.58
Sq. PERUZZI GIUSEPPE M M5 - CAVALLINO - SPECIALIZED 01:30:28.57 14,59 01:30:28.57
Sq. VERRAZZANI FRANCO M M6 - CAVALLINO - SPECIALIZED 01:30:27.82 14,59 01:30:27.82
1 CIANCIO GIUSEPPE M M4 1 CAVALLINO - SPECIALIZED 01:18:08.55 16,89 01:18:08.55
2 MORI MICHELE M ALL 1 BIKE THERAPY ASD 01:20:12.83 16,46 01:20:12.83
3 FURIASSE NICOLA M ALL 2 ASD SUPERBIKE TEAM 01:20:33.33 16,39 01:20:33.33
4 PENSERINI ELIA M ALL 3 ASD TEAM BIKE VALCONCA 01:27:39.33 15,06 01:27:39.33
5 MACCULI SAMUEL M ALL 4 ASD POLISPORTIVA MORROVALLESE 01:28:26.57 14,93 01:28:26.57
6 LIPPI FEDERICO M ES 1 ASD GS POPPI 01:28:29.83 14,92 01:28:29.83
7 PASOLINI DANIELE M ALL 5 ASD LE SALINE NATURA E SPORT 01:28:58.33 14,84 01:28:58.33
8 SERAFINI LORENZO M ALL 6 ASD LE SALINE NATURA E SPORT 01:32:59.57 14,20 01:32:59.57
9 PENSERINI NICOLO´ M ES 2 ASD TEAM BIKE VALCONCA 01:34:02.83 14,04 01:34:02.83
10 MONTI MATTEO M ES 3 ASD LE SALINE NATURA E SPORT 01:39:50.46 13,22 01:39:50.46
11 SANDRONI MARIO M ES 4 PESARO 01:49:10.08 12,09 01:49:10.08
12 MELANGOLA SAMUELE M ES 5 360 BIKE TEAM 01:56:49.58 11,30 01:56:49.58
13 MASCHERUCCI ANGELO M ES 6 360 BIKE TEAM 01:58:21.07 11,15 01:58:21.07
14 CORINALDESI DUCCIO M ES 7 TEAM CINGOLANI - SPECIALIZED 02:02:45.57 10,75 02:02:45.57
15 BRACCI JIMMY M CT 1 WUP BIKE 02:14:38.31 9,80 02:13:18.18
16 CECCOLI TONINO M M6 1 SAN MARINO RACE TEAM 02:19:14.82 9,48 02:18:19.19
17 MAFUCCI GIACOMO M CT 2 AVIS PRATOVECCHIO-ERREPI-LEE COUGAN 02:21:05.81 9,36 02:19:52.01
18 COPIOLI THA M ES 8 360 BIKE TEAM 02:21:41.32 9,32 02:21:41.32
19 TALAMONTI LUIGI M M4 2 PEDALE LENTO STELLA 02:35:38.06 8,48 02:34:49.49
20 RUTIGLIANO GIOVANNI M M6 2 ASD SBUBBIKERS 02:39:33.80 8,27 02:38:56.30
21 BARACCHI MATTEO M M3 1 ASD GS POPPI 02:43:13.78 8,09 02:42:11.08
22 PES GIULIO M ALL 7 OLIMPIA TEAM BIKE 02:44:19.56 8,03 02:44:19.56
23 DE BONIS ENEA M CT 3 LEPRI DI ROMAGNA 02:51:24.81 7,70 02:49:58.11
24 BALDISSERRI PIETRO M CT 4 LEPRI DI ROMAGNA 02:51:25.95 7,70 02:49:59.45
25 FACONDINI SALVATORE M M4 3 RABITI DURI MTB TEAM 02:52:04.31 7,67 02:51:10.10
26 CEMBALI GAIA F MW1 1 AVIS FAENZA 03:49:38.04 5,75 03:48:28.28